createdAt,value
2018-01-30T00:01:44.840Z,13.50
2018-01-30T00:04:12.306Z,9.63
2018-01-30T00:06:40.548Z,15.13
2018-01-30T00:09:08.065Z,12.37
2018-01-30T00:11:36.292Z,17.25
2018-01-30T00:14:03.780Z,14.05
2018-01-30T00:16:31.347Z,15.13
2018-01-30T00:18:58.824Z,10.73
2018-01-30T00:21:26.404Z,12.98
2018-01-30T00:23:53.883Z,14.07
2018-01-30T00:26:22.114Z,13.43
2018-01-30T00:28:49.728Z,20.17
2018-01-30T00:31:17.195Z,16.02
2018-01-30T00:33:44.672Z,15.02
2018-01-30T00:36:12.140Z,12.85
2018-01-30T00:38:39.800Z,16.62
2018-01-30T00:41:07.277Z,15.18
2018-01-30T00:43:34.727Z,14.87
2018-01-30T00:46:02.201Z,15.50
2018-01-30T00:48:29.679Z,15.90
2018-01-30T00:50:57.149Z,11.40
2018-01-30T00:53:24.615Z,12.25
2018-01-30T00:55:52.092Z,12.95
2018-01-30T00:58:19.576Z,11.75
2018-01-30T01:00:47.129Z,11.35
2018-01-30T01:03:14.708Z,16.87
2018-01-30T01:05:42.275Z,15.90
2018-01-30T01:08:09.741Z,12.68
2018-01-30T01:10:37.196Z,13.88
2018-01-30T01:13:04.780Z,16.60
2018-01-30T01:15:32.256Z,13.45
2018-01-30T01:17:59.874Z,17.48
2018-01-30T01:20:28.112Z,15.20
2018-01-30T01:22:55.597Z,12.05
2018-01-30T01:25:23.155Z,18.80
2018-01-30T01:27:50.628Z,17.62
2018-01-30T01:30:18.097Z,13.47
2018-01-30T01:32:45.664Z,18.67
2018-01-30T01:35:13.123Z,14.07
2018-01-30T01:37:40.591Z,12.50
2018-01-30T01:40:08.069Z,21.98
2018-01-30T01:42:35.555Z,15.10
2018-01-30T01:45:03.044Z,15.30
2018-01-30T01:47:31.275Z,18.33
2018-01-30T01:49:58.779Z,16.73
2018-01-30T01:52:26.336Z,14.85
2018-01-30T01:54:53.804Z,15.23
2018-01-30T01:57:21.283Z,16.77
2018-01-30T01:59:48.843Z,20.30
2018-01-30T02:02:16.319Z,24.27
2018-01-30T02:04:43.892Z,18.60
2018-01-30T02:07:11.351Z,14.90
2018-01-30T02:09:39.048Z,11.63
2018-01-30T02:12:06.503Z,17.75
2018-01-30T02:14:33.967Z,15.30
2018-01-30T02:17:01.437Z,17.48
2018-01-30T02:19:28.916Z,18.87
2018-01-30T02:21:56.375Z,14.90
2018-01-30T02:24:23.956Z,17.37
2018-01-30T02:26:51.428Z,17.08
2018-01-30T02:29:18.900Z,14.97
2018-01-30T02:31:46.475Z,17.27
2018-01-30T02:34:14.040Z,15.60
2018-01-30T02:36:41.509Z,12.50
2018-01-30T02:39:08.988Z,11.38
2018-01-30T02:41:36.452Z,18.50
2018-01-30T02:44:03.912Z,16.05
2018-01-30T02:46:31.456Z,17.55
2018-01-30T02:48:58.912Z,19.60
2018-01-30T02:51:26.368Z,16.70
2018-01-30T02:53:54.619Z,14.10
2018-01-30T02:56:22.080Z,13.93
2018-01-30T02:58:49.574Z,16.83
2018-01-30T03:01:17.055Z,16.52
2018-01-30T03:03:45.324Z,16.27
2018-01-30T03:06:12.791Z,15.85
2018-01-30T03:08:40.252Z,17.42
2018-01-30T03:11:07.920Z,15.55
2018-01-30T03:13:35.392Z,14.73
2018-01-30T03:16:02.865Z,20.07
2018-01-30T03:18:30.445Z,19.98
2018-01-30T03:20:57.915Z,12.80
2018-01-30T03:23:25.584Z,21.20
2018-01-30T03:25:53.062Z,19.75
2018-01-30T03:28:20.619Z,15.90
2018-01-30T03:30:48.242Z,15.73
2018-01-30T03:33:15.764Z,17.92
2018-01-30T03:35:43.231Z,16.70
2018-01-30T03:38:10.699Z,16.73
2018-01-30T03:40:38.157Z,22.25
2018-01-30T03:43:05.629Z,22.62
2018-01-30T03:45:33.113Z,17.62
2018-01-30T03:48:00.576Z,14.90
2018-01-30T03:50:28.100Z,17.45
2018-01-30T03:52:56.320Z,23.83
2018-01-30T03:55:23.779Z,23.33
2018-01-30T03:57:51.296Z,24.37
2018-01-30T04:00:18.788Z,25.73
2018-01-30T04:02:47.044Z,16.05
2018-01-30T04:05:14.500Z,19.98
2018-01-30T04:07:41.963Z,23.23
2018-01-30T04:10:09.424Z,17.92
2018-01-30T04:12:36.912Z,18.45
2018-01-30T04:15:04.380Z,20.98
2018-01-30T04:17:31.952Z,21.12
2018-01-30T04:19:59.729Z,21.60
2018-01-30T04:22:27.195Z,17.70
2018-01-30T04:24:54.664Z,21.98
2018-01-30T04:27:22.127Z,19.58
2018-01-30T04:29:49.708Z,22.02
2018-01-30T04:32:17.180Z,20.33
2018-01-30T04:34:44.652Z,19.62
2018-01-30T04:37:12.128Z,18.67
2018-01-30T04:39:39.694Z,16.75
2018-01-30T04:42:07.160Z,18.00
2018-01-30T04:44:34.624Z,21.50
2018-01-30T04:47:02.304Z,22.90
2018-01-30T04:49:29.776Z,19.62
2018-01-30T04:51:57.252Z,18.90
2018-01-30T04:54:24.796Z,20.50
2018-01-30T04:56:52.285Z,20.27
2018-01-30T04:59:19.756Z,19.65
2018-01-30T05:01:47.219Z,21.60
2018-01-30T05:04:15.243Z,23.60
2018-01-30T05:09:22.612Z,23.83
2018-01-30T05:11:50.112Z,24.35
2018-01-30T05:14:17.577Z,24.73
2018-01-30T05:16:45.144Z,20.77
2018-01-30T05:19:12.620Z,24.90
2018-01-30T05:21:40.087Z,29.07
2018-01-30T05:24:07.667Z,26.83
2018-01-30T05:26:35.232Z,25.33
2018-01-30T05:29:02.693Z,25.65
2018-01-30T05:31:30.176Z,31.30
2018-01-30T05:33:57.628Z,31.98
2018-01-30T05:36:25.084Z,30.15
2018-01-30T05:38:52.587Z,31.40
2018-01-30T05:41:20.056Z,35.63
2018-01-30T05:43:47.544Z,31.73
2018-01-30T05:46:15.811Z,28.73
2018-01-30T05:48:43.281Z,33.78
2018-01-30T05:51:10.848Z,27.83
2018-01-30T05:53:38.319Z,37.65
2018-01-30T05:56:05.938Z,28.20
2018-01-30T05:58:34.276Z,37.28
2018-01-30T06:01:01.736Z,33.30
2018-01-30T06:03:29.204Z,35.10
2018-01-30T06:05:56.684Z,40.28
2018-01-30T06:08:24.143Z,39.80
2018-01-30T06:10:51.623Z,32.50
2018-01-30T06:13:19.195Z,32.03
2018-01-30T06:15:46.768Z,34.38
2018-01-30T06:18:14.236Z,36.78
2018-01-30T06:20:41.816Z,35.17
2018-01-30T06:23:09.272Z,51.30
2018-01-30T06:25:36.748Z,45.47
2018-01-30T06:28:04.204Z,41.03
2018-01-30T06:30:31.664Z,41.15
2018-01-30T06:32:59.152Z,45.17
2018-01-30T06:35:26.632Z,42.83
2018-01-30T06:37:54.112Z,43.05
2018-01-30T06:40:21.581Z,39.33
2018-01-30T06:42:49.176Z,46.88
2018-01-30T06:45:16.672Z,44.40
2018-01-30T06:47:44.220Z,36.25
2018-01-30T06:50:11.749Z,40.00
2018-01-30T06:52:39.625Z,38.42
2018-01-30T06:55:07.182Z,41.53
2018-01-30T06:57:34.665Z,47.67
2018-01-30T07:00:02.277Z,48.03
2018-01-30T07:02:29.744Z,40.55
2018-01-30T07:04:57.253Z,40.03
2018-01-30T07:07:24.771Z,50.05
2018-01-30T07:09:52.236Z,44.83
2018-01-30T07:12:19.719Z,51.67
2018-01-30T07:14:47.197Z,58.05
2018-01-30T07:17:14.668Z,47.40
2018-01-30T07:19:42.228Z,54.40
2018-01-30T07:22:09.791Z,50.17
2018-01-30T07:24:37.269Z,47.80
2018-01-30T07:27:04.732Z,54.60
2018-01-30T07:29:32.202Z,45.97
2018-01-30T07:31:59.668Z,44.47
2018-01-30T07:34:27.132Z,49.85
2018-01-30T07:36:55.512Z,42.88
2018-01-30T07:39:23.008Z,46.22
2018-01-30T07:41:50.488Z,46.30
2018-01-30T07:44:18.040Z,48.97
2018-01-30T07:46:45.612Z,46.75
2018-01-30T07:49:13.287Z,43.87
2018-01-30T07:51:40.761Z,42.50
2018-01-30T07:54:08.232Z,37.53
2018-01-30T07:56:35.700Z,46.97
2018-01-30T07:59:03.320Z,51.08
2018-01-30T08:01:30.796Z,45.50
2018-01-30T08:03:58.308Z,50.07
2018-01-30T08:06:26.602Z,42.05
2018-01-30T08:08:54.080Z,55.03
2018-01-30T08:11:21.548Z,51.13
2018-01-30T08:13:49.116Z,57.47
2018-01-30T08:16:16.589Z,50.03
2018-01-30T08:18:44.067Z,50.70
2018-01-30T08:21:11.623Z,55.17
2018-01-30T08:23:39.080Z,53.25
2018-01-30T08:26:06.560Z,52.85
2018-01-30T08:28:34.042Z,57.37
2018-01-30T08:31:01.855Z,54.75
2018-01-30T08:33:29.317Z,53.92
2018-01-30T08:35:57.560Z,63.15
2018-01-30T08:38:25.042Z,54.90
2018-01-30T08:41:36.117Z,59.85
2018-01-30T08:44:03.581Z,52.05
2018-01-30T08:46:31.081Z,55.58
2018-01-30T08:48:58.541Z,56.03
2018-01-30T08:51:25.993Z,54.08
2018-01-30T08:53:53.464Z,52.15
2018-01-30T08:56:20.919Z,60.40
2018-01-30T08:58:48.380Z,55.20
2018-01-30T09:01:15.840Z,58.87
2018-01-30T09:03:43.304Z,63.92
2018-01-30T09:06:11.532Z,60.70
2018-01-30T09:08:39.004Z,56.20
2018-01-30T09:11:06.464Z,55.80
2018-01-30T09:13:33.951Z,62.28
2018-01-30T09:16:01.417Z,57.88
2018-01-30T09:18:28.881Z,53.00
2018-01-30T09:20:56.575Z,58.65
2018-01-30T09:23:24.053Z,50.85
2018-01-30T09:25:51.615Z,48.90
2018-01-30T09:28:19.192Z,50.92
2018-01-30T09:30:46.656Z,50.60
2018-01-30T09:33:14.119Z,46.88
2018-01-30T09:35:41.584Z,48.05
2018-01-30T09:38:09.060Z,50.47
2018-01-30T09:40:36.540Z,50.00
2018-01-30T09:43:04.019Z,51.00
2018-01-30T09:45:31.480Z,48.65
2018-01-30T09:47:58.981Z,54.35
2018-01-30T09:50:27.240Z,42.53
2018-01-30T09:52:54.712Z,52.97
2018-01-30T09:55:22.188Z,49.03
2018-01-30T09:57:49.701Z,50.70
2018-01-30T10:00:17.220Z,44.75
2018-01-30T10:02:44.683Z,47.75
2018-01-30T10:05:12.260Z,48.75
2018-01-30T10:07:39.720Z,45.10
2018-01-30T10:10:07.204Z,43.38
2018-01-30T10:12:34.772Z,38.22
2018-01-30T10:15:02.232Z,46.63
2018-01-30T10:17:29.706Z,43.03
2018-01-30T10:19:57.224Z,39.65
2018-01-30T10:22:25.455Z,39.05
2018-01-30T10:24:52.945Z,36.27
2018-01-30T10:27:20.515Z,38.50
2018-01-30T10:29:47.983Z,39.63
2018-01-30T10:32:16.047Z,38.72
2018-01-30T10:34:43.528Z,35.97
2018-01-30T10:37:11.018Z,33.25
2018-01-30T10:39:38.579Z,39.75
2018-01-30T10:42:07.034Z,35.17
2018-01-30T10:44:34.540Z,43.50
2018-01-30T10:47:02.024Z,39.70
2018-01-30T10:49:29.588Z,38.13
2018-01-30T10:51:57.080Z,40.15
2018-01-30T10:54:25.348Z,43.67
2018-01-30T10:56:52.916Z,39.28
2018-01-30T10:59:21.216Z,36.75
2018-01-30T11:01:48.700Z,38.67
2018-01-30T11:04:16.972Z,39.08
2018-01-30T11:06:44.431Z,42.30
2018-01-30T11:09:12.004Z,38.88
2018-01-30T11:11:39.484Z,40.53
2018-01-30T11:14:07.044Z,38.78
2018-01-30T11:16:34.516Z,34.90
2018-01-30T11:19:02.191Z,36.40
2018-01-30T11:21:30.476Z,37.83
2018-01-30T11:23:57.931Z,34.95
2018-01-30T11:26:25.512Z,33.70
2018-01-30T11:28:52.984Z,33.22
2018-01-30T11:31:20.449Z,35.65
2018-01-30T11:33:47.933Z,39.95
2018-01-30T11:36:15.488Z,34.38
2018-01-30T11:38:42.948Z,35.15
2018-01-30T11:41:10.460Z,35.83
2018-01-30T11:43:37.900Z,36.00
2018-01-30T11:46:05.469Z,27.08
2018-01-30T11:48:32.941Z,29.55
2018-01-30T11:51:00.404Z,29.60
2018-01-30T11:53:27.888Z,30.17
2018-01-30T11:55:55.351Z,33.20
2018-01-30T11:58:22.856Z,30.23
2018-01-30T12:00:51.096Z,33.38
2018-01-30T12:03:18.572Z,27.23
2018-01-30T12:05:46.046Z,30.37
2018-01-30T12:08:13.717Z,31.83
2018-01-30T12:10:41.191Z,27.67
2018-01-30T12:13:08.645Z,29.48
2018-01-30T12:15:36.128Z,28.33
2018-01-30T12:18:03.596Z,22.92
2018-01-30T12:20:31.075Z,24.83
2018-01-30T12:22:58.532Z,25.02
2018-01-30T12:25:26.108Z,26.12
2018-01-30T12:27:53.577Z,26.87
2018-01-30T12:30:21.151Z,26.35
2018-01-30T12:32:48.612Z,27.98
2018-01-30T12:35:16.084Z,21.95
2018-01-30T12:37:43.576Z,22.10
2018-01-30T12:40:11.119Z,21.40
2018-01-30T12:42:38.607Z,20.25
2018-01-30T12:45:06.101Z,20.12
2018-01-30T12:47:34.456Z,17.98
2018-01-30T12:50:01.936Z,19.98
2018-01-30T12:52:29.392Z,19.87
2018-01-30T12:54:56.856Z,23.83
2018-01-30T12:57:24.337Z,17.48
2018-01-30T12:59:51.808Z,16.70
2018-01-30T13:02:19.279Z,18.52
2018-01-30T13:04:46.844Z,16.23
2018-01-30T13:07:14.300Z,13.93
2018-01-30T13:09:41.787Z,13.62
2018-01-30T13:12:09.359Z,12.43
2018-01-30T13:14:36.824Z,12.50
2018-01-30T13:17:04.410Z,10.80
2018-01-30T13:19:31.876Z,11.82
2018-01-30T13:21:59.448Z,13.05
2018-01-30T13:24:26.916Z,11.73
2018-01-30T13:26:54.428Z,14.32
2018-01-30T13:29:22.765Z,13.05
2018-01-30T13:31:50.240Z,17.20
2018-01-30T13:34:17.709Z,11.55
2018-01-30T13:36:45.196Z,15.30
2018-01-30T13:39:12.763Z,15.57
2018-01-30T13:41:40.273Z,19.23
2018-01-30T13:44:08.512Z,15.70
2018-01-30T13:46:36.080Z,17.00
2018-01-30T13:49:03.542Z,16.20
2018-01-30T13:51:31.020Z,14.32
2018-01-30T13:53:58.639Z,12.95
2018-01-30T13:56:26.880Z,17.45
2018-01-30T13:58:54.398Z,16.85
2018-01-30T14:01:22.843Z,15.18
2018-01-30T14:03:50.304Z,15.60
2018-01-30T14:06:17.766Z,16.60
2018-01-30T14:08:45.256Z,15.77
2018-01-30T14:11:12.727Z,18.80
2018-01-30T14:13:40.192Z,19.23
2018-01-30T14:16:07.656Z,16.40
2018-01-30T14:18:35.144Z,18.27
2018-01-30T14:21:02.636Z,15.05
2018-01-30T14:23:30.896Z,15.07
2018-01-30T14:25:58.356Z,16.98
2018-01-30T14:28:25.880Z,19.20
2018-01-30T14:30:53.400Z,20.95
2018-01-30T14:33:20.972Z,20.75
2018-01-30T14:35:48.432Z,24.55
2018-01-30T14:38:15.917Z,21.08
2018-01-30T14:40:43.388Z,19.98
2018-01-30T14:43:10.856Z,25.48
2018-01-30T14:45:38.344Z,24.87
2018-01-30T14:48:05.816Z,26.20
2018-01-30T14:50:34.045Z,21.40
2018-01-30T14:53:01.548Z,24.48
2018-01-30T14:55:29.170Z,21.95
2018-01-30T14:57:56.696Z,22.40
2018-01-30T15:00:24.152Z,23.83
2018-01-30T15:02:51.620Z,21.85
2018-01-30T15:05:19.080Z,26.25
2018-01-30T15:07:46.568Z,25.05
2018-01-30T15:10:14.036Z,23.42
2018-01-30T15:12:41.507Z,25.62
2018-01-30T15:15:09.076Z,30.40
2018-01-30T15:17:36.531Z,24.70
2018-01-30T15:20:03.988Z,29.58
2018-01-30T15:22:31.467Z,30.83
2018-01-30T15:24:58.956Z,31.17
2018-01-30T15:27:26.417Z,29.98
2018-01-30T15:29:53.910Z,31.33
2018-01-30T15:32:21.380Z,34.78
2018-01-30T15:34:48.840Z,35.38
2018-01-30T15:37:16.353Z,30.02
2018-01-30T15:39:44.580Z,38.15
2018-01-30T15:42:12.040Z,39.83
2018-01-30T15:44:39.532Z,38.40
2018-01-30T15:47:07.105Z,37.75
2018-01-30T15:49:34.580Z,38.95
2018-01-30T15:52:02.145Z,34.97
2018-01-30T15:54:29.716Z,40.72
2018-01-30T15:56:57.288Z,42.67
2018-01-30T15:59:24.757Z,37.00
2018-01-30T16:01:52.234Z,45.33
2018-01-30T16:04:19.720Z,47.47
2018-01-30T16:06:47.184Z,45.38
2018-01-30T16:09:14.666Z,41.22
2018-01-30T16:11:42.888Z,44.58
2018-01-30T16:14:10.344Z,41.27
2018-01-30T16:16:37.810Z,40.20
2018-01-30T16:19:05.297Z,44.53
2018-01-30T16:21:32.756Z,46.78
2018-01-30T16:24:00.220Z,45.95
2018-01-30T16:26:27.696Z,49.50
2018-01-30T16:28:55.173Z,41.97
2018-01-30T16:31:22.688Z,46.25
2018-01-30T16:33:50.916Z,47.03
2018-01-30T16:36:18.448Z,52.80
2018-01-30T16:38:46.704Z,48.58
2018-01-30T16:41:14.297Z,38.57
2018-01-30T16:43:41.760Z,48.53
2018-01-30T16:46:09.248Z,42.25
2018-01-30T16:48:36.724Z,46.28
2018-01-30T16:51:04.292Z,47.33
2018-01-30T16:53:31.856Z,49.30
2018-01-30T16:55:59.424Z,49.15
2018-01-30T16:58:26.888Z,43.22
2018-01-30T17:00:54.618Z,44.88
2018-01-30T17:03:22.868Z,46.03
2018-01-30T17:05:50.424Z,48.58
2018-01-30T17:08:17.892Z,44.15
2018-01-30T17:10:45.368Z,50.60
2018-01-30T17:13:13.040Z,45.58
2018-01-30T17:15:40.621Z,48.80
2018-01-30T17:18:08.189Z,47.35
2018-01-30T17:20:36.439Z,52.85
2018-01-30T17:23:03.956Z,49.40
2018-01-30T17:25:31.426Z,47.30
2018-01-30T17:27:58.904Z,51.90
2018-01-30T17:30:27.296Z,53.42
2018-01-30T17:32:54.804Z,53.58
2018-01-30T17:35:22.267Z,52.13
2018-01-30T17:37:49.745Z,56.75
2018-01-30T17:40:17.204Z,51.70
2018-01-30T17:42:44.688Z,51.97
2018-01-30T17:45:12.341Z,49.83
2018-01-30T17:47:39.863Z,52.55
2018-01-30T17:50:07.367Z,66.30
2018-01-30T17:52:34.812Z,51.63
2018-01-30T17:55:02.267Z,57.43
2018-01-30T17:57:29.760Z,52.03
2018-01-30T17:59:58.748Z,48.72
2018-01-30T18:02:26.217Z,54.20
2018-01-30T18:04:53.693Z,56.37
2018-01-30T18:07:21.260Z,53.78
2018-01-30T18:09:48.832Z,54.95
2018-01-30T18:12:16.312Z,63.00
2018-01-30T18:14:43.940Z,63.08
2018-01-30T18:17:11.444Z,68.55
2018-01-30T18:19:38.904Z,63.03
2018-01-30T18:22:06.380Z,66.30
2018-01-30T18:24:33.844Z,77.82
2018-01-30T18:27:01.324Z,79.95
2018-01-30T18:29:28.784Z,77.55
2018-01-30T18:31:56.244Z,77.20
2018-01-30T18:34:23.711Z,76.28
2018-01-30T18:36:51.264Z,86.25
2018-01-30T18:39:18.724Z,72.17
2018-01-30T18:41:46.200Z,66.32
2018-01-30T18:44:13.680Z,63.28
2018-01-30T18:46:41.148Z,64.90
2018-01-30T18:49:08.660Z,64.50
2018-01-30T18:51:36.139Z,74.57
2018-01-30T18:54:03.609Z,64.40
2018-01-30T18:56:31.080Z,74.28
2018-01-30T18:58:58.740Z,69.82
2018-01-30T19:01:26.200Z,66.80
2018-01-30T19:03:53.664Z,67.57
2018-01-30T19:06:21.144Z,63.37
2018-01-30T19:08:48.616Z,65.60
2018-01-30T19:11:16.098Z,66.68
2018-01-30T19:13:43.668Z,61.80
2018-01-30T19:16:11.143Z,58.65
2018-01-30T19:18:39.380Z,68.55
2018-01-30T19:21:06.884Z,62.35
2018-01-30T19:23:34.449Z,60.75
2018-01-30T19:26:01.920Z,62.85
2018-01-30T19:28:29.384Z,61.97
2018-01-30T19:30:56.869Z,61.70
2018-01-30T19:33:24.440Z,63.60
2018-01-30T19:35:51.920Z,59.58
2018-01-30T19:38:19.392Z,61.60
2018-01-30T19:40:46.861Z,62.22
2018-01-30T19:43:14.325Z,56.78
2018-01-30T19:45:41.789Z,58.22
2018-01-30T19:48:09.363Z,62.03
2018-01-30T19:50:36.839Z,58.72
2018-01-30T19:53:04.295Z,61.88
2018-01-30T19:55:31.752Z,54.77
2018-01-30T19:57:59.236Z,55.57
2018-01-30T20:00:26.701Z,58.47
2018-01-30T20:02:54.178Z,58.28
2018-01-30T20:05:21.741Z,57.50
2018-01-30T20:07:49.317Z,58.95
2018-01-30T20:10:18.334Z,57.40
2018-01-30T20:12:45.895Z,55.10
2018-01-30T20:15:13.469Z,54.15
2018-01-30T20:17:41.038Z,58.85
2018-01-30T20:20:08.599Z,60.88
2018-01-30T20:22:36.176Z,54.40
2018-01-30T20:25:03.756Z,55.12
2018-01-30T20:27:31.244Z,62.25
2018-01-30T20:29:59.556Z,56.97
2018-01-30T20:32:27.792Z,57.10
2018-01-30T20:34:55.320Z,56.60
2018-01-30T20:37:22.840Z,54.22
2018-01-30T20:39:50.300Z,52.50
2018-01-30T20:42:17.784Z,61.28
2018-01-30T20:44:45.348Z,55.45
2018-01-30T20:47:12.811Z,54.17
2018-01-30T20:49:40.279Z,56.43
2018-01-30T20:52:07.740Z,55.07
2018-01-30T20:54:35.228Z,54.58
2018-01-30T20:57:02.716Z,55.97
2018-01-30T20:59:30.999Z,58.10
2018-01-30T21:01:58.471Z,51.72
2018-01-30T21:04:25.959Z,47.15
2018-01-30T21:06:54.199Z,46.42
2018-01-30T21:09:21.719Z,53.55
2018-01-30T21:11:49.952Z,50.80
2018-01-30T21:14:17.420Z,54.28
2018-01-30T21:16:44.900Z,48.92
2018-01-30T21:19:12.374Z,48.83
2018-01-30T21:21:39.840Z,48.92
2018-01-30T21:24:07.300Z,45.50
2018-01-30T21:26:34.772Z,46.83
2018-01-30T21:29:02.232Z,51.30
2018-01-30T21:31:29.692Z,43.10
2018-01-30T21:33:57.188Z,46.30
2018-01-30T21:36:24.652Z,47.35
2018-01-30T21:38:52.112Z,43.87
2018-01-30T21:41:19.596Z,41.55
2018-01-30T21:43:47.067Z,45.85
2018-01-30T21:46:14.540Z,46.60
2018-01-30T21:48:42.029Z,40.20
2018-01-30T21:51:09.493Z,45.10
2018-01-30T21:53:36.954Z,50.03
2018-01-30T21:56:04.492Z,56.28
2018-01-30T21:58:31.989Z,47.47
2018-01-30T22:00:59.595Z,63.63
2018-01-30T22:03:27.834Z,54.88
2018-01-30T22:05:55.316Z,56.07
2018-01-30T22:08:22.783Z,54.30
2018-01-30T22:10:50.252Z,50.90
2018-01-30T22:13:17.721Z,44.45
2018-01-30T22:15:45.296Z,46.25
2018-01-30T22:18:12.756Z,45.72
2018-01-30T22:20:40.228Z,41.05
2018-01-30T22:23:07.704Z,43.95
2018-01-30T22:25:35.274Z,38.15
2018-01-30T22:28:02.744Z,37.05
2018-01-30T22:30:30.207Z,43.55
2018-01-30T22:32:57.702Z,38.10
2018-01-30T22:35:25.986Z,38.58
2018-01-30T22:37:53.451Z,37.13
2018-01-30T22:40:21.013Z,38.58
2018-01-30T22:42:48.487Z,35.40
2018-01-30T22:45:16.866Z,36.45
